sensor_id;sensor_type;location;lat;lon;timestamp;pressure;altitude;pressure_sealevel;temperature;humidity
47811;BME280;33575;52.600;7.318;2023-07-29T00:00:53;100485.25;;;19.77;95.65
47811;BME280;33575;52.600;7.318;2023-07-29T00:03:24;100488.28;;;19.78;95.31
47811;BME280;33575;52.600;7.318;2023-07-29T00:05:54;100485.55;;;19.77;95.41
47811;BME280;33575;52.600;7.318;2023-07-29T00:08:25;100487.36;;;19.74;95.62
47811;BME280;33575;52.600;7.318;2023-07-29T00:10:55;100481.21;;;19.69;95.94
47811;BME280;33575;52.600;7.318;2023-07-29T00:13:26;100481.51;;;19.67;95.76
47811;BME280;33575;52.600;7.318;2023-07-29T00:15:56;100482.62;;;19.64;95.72
47811;BME280;33575;52.600;7.318;2023-07-29T00:18:26;100480.82;;;19.61;95.85
47811;BME280;33575;52.600;7.318;2023-07-29T00:20:56;100484.66;;;19.60;95.99
47811;BME280;33575;52.600;7.318;2023-07-29T00:23:26;100481.90;;;19.60;96.55
47811;BME280;33575;52.600;7.318;2023-07-29T00:25:57;100478.11;;;19.57;96.63
47811;BME280;33575;52.600;7.318;2023-07-29T00:28:28;100477.99;;;19.55;96.46
47811;BME280;33575;52.600;7.318;2023-07-29T00:30:58;100471.22;;;19.54;96.69
47811;BME280;33575;52.600;7.318;2023-07-29T00:33:28;100469.67;;;19.54;96.66
47811;BME280;33575;52.600;7.318;2023-07-29T00:35:59;100470.03;;;19.54;96.62
47811;BME280;33575;52.600;7.318;2023-07-29T00:38:30;100467.71;;;19.54;96.52
47811;BME280;33575;52.600;7.318;2023-07-29T00:41:02;100470.60;;;19.54;96.40
47811;BME280;33575;52.600;7.318;2023-07-29T00:43:31;100476.17;;;19.53;96.39
47811;BME280;33575;52.600;7.318;2023-07-29T00:46:01;100470.65;;;19.52;97.03
47811;BME280;33575;52.600;7.318;2023-07-29T00:48:32;100459.45;;;19.51;97.30
47811;BME280;33575;52.600;7.318;2023-07-29T00:51:02;100457.41;;;19.51;97.30
47811;BME280;33575;52.600;7.318;2023-07-29T00:53:32;100455.62;;;19.50;97.35
47811;BME280;33575;52.600;7.318;2023-07-29T00:56:03;100459.16;;;19.53;97.08
47811;BME280;33575;52.600;7.318;2023-07-29T00:58:34;100463.45;;;19.55;97.16
47811;BME280;33575;52.600;7.318;2023-07-29T01:01:05;100452.20;;;19.52;98.20
47811;BME280;33575;52.600;7.318;2023-07-29T01:03:35;100446.05;;;19.53;97.76
47811;BME280;33575;52.600;7.318;2023-07-29T01:06:12;100439.16;;;19.53;97.68
47811;BME280;33575;52.600;7.318;2023-07-29T01:08:45;100437.30;;;19.55;97.59
47811;BME280;33575;52.600;7.318;2023-07-29T01:11:16;100436.92;;;19.56;97.58
47811;BME280;33575;52.600;7.318;2023-07-29T01:13:47;100442.91;;;19.57;97.55
47811;BME280;33575;52.600;7.318;2023-07-29T01:16:12;100448.90;;;19.57;97.61
47811;BME280;33575;52.600;7.318;2023-07-29T01:18:39;100459.13;;;19.57;97.78
47811;BME280;33575;52.600;7.318;2023-07-29T01:21:09;100458.78;;;19.56;98.56
47811;BME280;33575;52.600;7.318;2023-07-29T01:23:39;100445.37;;;19.52;98.60
47811;BME280;33575;52.600;7.318;2023-07-29T01:26:10;100460.08;;;19.51;98.72
47811;BME280;33575;52.600;7.318;2023-07-29T01:28:40;100454.08;;;19.49;99.51
47811;BME280;33575;52.600;7.318;2023-07-29T01:31:16;100449.59;;;19.46;100.00
47811;BME280;33575;52.600;7.318;2023-07-29T01:33:56;100449.40;;;19.47;99.63
47811;BME280;33575;52.600;7.318;2023-07-29T01:36:18;100451.42;;;19.52;99.44
47811;BME280;33575;52.600;7.318;2023-07-29T01:38:44;100453.26;;;19.56;99.48
47811;BME280;33575;52.600;7.318;2023-07-29T01:41:14;100452.27;;;19.57;99.68
47811;BME280;33575;52.600;7.318;2023-07-29T01:43:45;100445.04;;;19.63;99.29
47811;BME280;33575;52.600;7.318;2023-07-29T01:46:15;100447.07;;;19.65;98.96
47811;BME280;33575;52.600;7.318;2023-07-29T01:48:45;100441.88;;;19.67;98.96
47811;BME280;33575;52.600;7.318;2023-07-29T01:51:16;100440.82;;;19.68;98.82
47811;BME280;33575;52.600;7.318;2023-07-29T01:53:46;100444.04;;;19.69;98.46
47811;BME280;33575;52.600;7.318;2023-07-29T01:56:17;100444.57;;;19.70;98.30
47811;BME280;33575;52.600;7.318;2023-07-29T01:58:48;100442.34;;;19.70;98.50
47811;BME280;33575;52.600;7.318;2023-07-29T02:01:18;100441.99;;;19.68;98.60
47811;BME280;33575;52.600;7.318;2023-07-29T02:03:49;100436.33;;;19.67;98.63
47811;BME280;33575;52.600;7.318;2023-07-29T02:06:20;100426.90;;;19.64;98.84
47811;BME280;33575;52.600;7.318;2023-07-29T02:08:51;100428.89;;;19.63;98.48
47811;BME280;33575;52.600;7.318;2023-07-29T02:11:20;100428.51;;;19.61;98.33
47811;BME280;33575;52.600;7.318;2023-07-29T02:13:51;100433.20;;;19.60;97.89
47811;BME280;33575;52.600;7.318;2023-07-29T02:16:22;100444.46;;;19.58;97.74
47811;BME280;33575;52.600;7.318;2023-07-29T02:18:55;100447.36;;;19.53;98.31
47811;BME280;33575;52.600;7.318;2023-07-29T02:21:22;100446.20;;;19.46;98.67
47811;BME280;33575;52.600;7.318;2023-07-29T02:23:53;100438.32;;;19.41;99.07
47811;BME280;33575;52.600;7.318;2023-07-29T02:26:24;100432.15;;;19.35;99.33
47811;BME280;33575;52.600;7.318;2023-07-29T02:28:55;100435.39;;;19.36;99.26
47811;BME280;33575;52.600;7.318;2023-07-29T02:31:25;100428.87;;;19.34;99.43
47811;BME280;33575;52.600;7.318;2023-07-29T02:33:55;100417.95;;;19.30;99.74
47811;BME280;33575;52.600;7.318;2023-07-29T02:36:25;100411.26;;;19.27;99.66
47811;BME280;33575;52.600;7.318;2023-07-29T02:38:55;100405.95;;;19.20;100.00
47811;BME280;33575;52.600;7.318;2023-07-29T02:41:26;100403.63;;;19.19;99.86
47811;BME280;33575;52.600;7.318;2023-07-29T02:43:56;100407.70;;;19.19;99.56
47811;BME280;33575;52.600;7.318;2023-07-29T02:46:26;100410.42;;;19.20;99.39
47811;BME280;33575;52.600;7.318;2023-07-29T02:48:57;100398.19;;;19.20;99.59
47811;BME280;33575;52.600;7.318;2023-07-29T02:51:28;100380.40;;;19.17;99.48
47811;BME280;33575;52.600;7.318;2023-07-29T02:53:58;100391.25;;;19.14;99.18
47811;BME280;33575;52.600;7.318;2023-07-29T02:56:29;100392.15;;;19.09;99.41
47811;BME280;33575;52.600;7.318;2023-07-29T02:58:59;100393.34;;;19.09;99.31
47811;BME280;33575;52.600;7.318;2023-07-29T03:01:30;100394.87;;;19.10;99.05
47811;BME280;33575;52.600;7.318;2023-07-29T03:04:00;100390.45;;;19.12;98.90
47811;BME280;33575;52.600;7.318;2023-07-29T03:06:30;100393.28;;;19.10;98.69
47811;BME280;33575;52.600;7.318;2023-07-29T03:09:00;100405.19;;;19.08;98.63
47811;BME280;33575;52.600;7.318;2023-07-29T03:11:31;100409.85;;;19.07;98.78
47811;BME280;33575;52.600;7.318;2023-07-29T03:14:01;100409.08;;;19.07;98.67
47811;BME280;33575;52.600;7.318;2023-07-29T03:16:31;100410.49;;;19.06;98.69
47811;BME280;33575;52.600;7.318;2023-07-29T03:19:01;100411.66;;;19.04;98.68
47811;BME280;33575;52.600;7.318;2023-07-29T03:21:32;100413.10;;;19.03;98.57
47811;BME280;33575;52.600;7.318;2023-07-29T03:24:02;100423.21;;;19.00;99.21
47811;BME280;33575;52.600;7.318;2023-07-29T03:26:33;100424.14;;;19.00;98.99
47811;BME280;33575;52.600;7.318;2023-07-29T03:29:03;100429.96;;;18.96;99.47
47811;BME280;33575;52.600;7.318;2023-07-29T03:31:33;100431.38;;;18.90;99.62
47811;BME280;33575;52.600;7.318;2023-07-29T03:34:04;100431.53;;;18.86;100.00
47811;BME280;33575;52.600;7.318;2023-07-29T03:36:36;100429.23;;;18.78;100.00
47811;BME280;33575;52.600;7.318;2023-07-29T03:39:05;100426.97;;;18.77;100.00
47811;BME280;33575;52.600;7.318;2023-07-29T03:41:36;100422.76;;;18.78;100.00
47811;BME280;33575;52.600;7.318;2023-07-29T03:44:06;100421.04;;;18.81;100.00
47811;BME280;33575;52.600;7.318;2023-07-29T03:46:36;100419.35;;;18.82;100.00
47811;BME280;33575;52.600;7.318;2023-07-29T03:49:06;100420.33;;;18.84;100.00
47811;BME280;33575;52.600;7.318;2023-07-29T03:51:37;100422.01;;;18.89;100.00
47811;BME280;33575;52.600;7.318;2023-07-29T03:54:07;100417.97;;;18.90;100.00
47811;BME280;33575;52.600;7.318;2023-07-29T03:56:38;100416.63;;;18.92;100.00
47811;BME280;33575;52.600;7.318;2023-07-29T03:59:08;100415.61;;;18.94;100.00
47811;BME280;33575;52.600;7.318;2023-07-29T04:01:38;100408.24;;;18.95;100.00
47811;BME280;33575;52.600;7.318;2023-07-29T04:04:09;100412.05;;;18.96;100.00
47811;BME280;33575;52.600;7.318;2023-07-29T04:06:40;100409.25;;;18.98;99.96
47811;BME280;33575;52.600;7.318;2023-07-29T04:09:11;100406.61;;;19.00;99.91
47811;BME280;33575;52.600;7.318;2023-07-29T04:11:42;100402.33;;;19.02;99.76
47811;BME280;33575;52.600;7.318;2023-07-29T04:14:12;100400.80;;;19.00;100.00
47811;BME280;33575;52.600;7.318;2023-07-29T04:16:43;100395.44;;;18.99;100.00
47811;BME280;33575;52.600;7.318;2023-07-29T04:19:13;100387.52;;;19.01;100.00
47811;BME280;33575;52.600;7.318;2023-07-29T04:21:44;100382.06;;;19.03;100.00
47811;BME280;33575;52.600;7.318;2023-07-29T04:24:14;100376.39;;;19.04;100.00
47811;BME280;33575;52.600;7.318;2023-07-29T04:26:45;100376.06;;;19.05;99.77
47811;BME280;33575;52.600;7.318;2023-07-29T04:29:16;100374.72;;;19.05;99.64
47811;BME280;33575;52.600;7.318;2023-07-29T04:31:46;100376.07;;;19.06;99.73
47811;BME280;33575;52.600;7.318;2023-07-29T04:34:17;100374.46;;;19.05;99.87
47811;BME280;33575;52.600;7.318;2023-07-29T04:36:47;100376.10;;;19.06;99.90
47811;BME280;33575;52.600;7.318;2023-07-29T04:39:17;100373.48;;;19.07;99.81
47811;BME280;33575;52.600;7.318;2023-07-29T04:41:48;100376.26;;;19.09;99.62
47811;BME280;33575;52.600;7.318;2023-07-29T04:44:19;100374.01;;;19.09;99.61
47811;BME280;33575;52.600;7.318;2023-07-29T04:46:49;100375.63;;;19.10;99.57
47811;BME280;33575;52.600;7.318;2023-07-29T04:49:20;100371.93;;;19.10;99.57
47811;BME280;33575;52.600;7.318;2023-07-29T04:51:50;100374.80;;;19.06;99.74
47811;BME280;33575;52.600;7.318;2023-07-29T04:54:21;100379.68;;;19.01;99.70
47811;BME280;33575;52.600;7.318;2023-07-29T04:56:51;100378.78;;;19.01;99.92
47811;BME280;33575;52.600;7.318;2023-07-29T04:59:21;100375.92;;;19.02;99.86
47811;BME280;33575;52.600;7.318;2023-07-29T05:01:55;100379.61;;;19.05;99.80
47811;BME280;33575;52.600;7.318;2023-07-29T05:04:22;100381.33;;;19.06;99.93
47811;BME280;33575;52.600;7.318;2023-07-29T05:06:53;100379.55;;;19.08;99.59
47811;BME280;33575;52.600;7.318;2023-07-29T05:09:23;100383.43;;;19.08;99.50
47811;BME280;33575;52.600;7.318;2023-07-29T05:11:54;100384.11;;;19.07;99.66
47811;BME280;33575;52.600;7.318;2023-07-29T05:14:24;100384.22;;;19.06;99.62
47811;BME280;33575;52.600;7.318;2023-07-29T05:16:55;100380.00;;;19.08;99.76
47811;BME280;33575;52.600;7.318;2023-07-29T05:19:25;100379.39;;;19.09;99.91
47811;BME280;33575;52.600;7.318;2023-07-29T05:21:56;100382.67;;;19.11;99.76
47811;BME280;33575;52.600;7.318;2023-07-29T05:24:27;100389.02;;;19.13;99.89
47811;BME280;33575;52.600;7.318;2023-07-29T05:26:57;100388.05;;;19.15;100.00
47811;BME280;33575;52.600;7.318;2023-07-29T05:29:27;100389.18;;;19.15;100.00
47811;BME280;33575;52.600;7.318;2023-07-29T05:31:57;100394.45;;;19.14;100.00
47811;BME280;33575;52.600;7.318;2023-07-29T05:34:28;100396.38;;;19.16;100.00
47811;BME280;33575;52.600;7.318;2023-07-29T05:36:58;100396.82;;;19.18;100.00
47811;BME280;33575;52.600;7.318;2023-07-29T05:39:29;100390.87;;;19.15;100.00
47811;BME280;33575;52.600;7.318;2023-07-29T05:41:59;100388.49;;;19.19;100.00
47811;BME280;33575;52.600;7.318;2023-07-29T05:44:30;100388.17;;;19.23;100.00
47811;BME280;33575;52.600;7.318;2023-07-29T05:47:00;100390.89;;;19.24;100.00
47811;BME280;33575;52.600;7.318;2023-07-29T05:49:30;100393.08;;;19.24;100.00
47811;BME280;33575;52.600;7.318;2023-07-29T05:52:01;100386.87;;;19.26;100.00
47811;BME280;33575;52.600;7.318;2023-07-29T05:54:31;100387.33;;;19.28;100.00
47811;BME280;33575;52.600;7.318;2023-07-29T05:57:02;100387.47;;;19.27;100.00
47811;BME280;33575;52.600;7.318;2023-07-29T05:59:32;100390.17;;;19.27;100.00
47811;BME280;33575;52.600;7.318;2023-07-29T06:02:03;100389.89;;;19.30;100.00
47811;BME280;33575;52.600;7.318;2023-07-29T06:04:33;100389.53;;;19.32;100.00
47811;BME280;33575;52.600;7.318;2023-07-29T06:07:04;100387.30;;;19.33;100.00
47811;BME280;33575;52.600;7.318;2023-07-29T06:09:33;100387.90;;;19.28;100.00
47811;BME280;33575;52.600;7.318;2023-07-29T06:12:04;100389.91;;;19.20;100.00
47811;BME280;33575;52.600;7.318;2023-07-29T06:14:34;100394.31;;;19.08;100.00
47811;BME280;33575;52.600;7.318;2023-07-29T06:17:05;100404.97;;;19.14;100.00
47811;BME280;33575;52.600;7.318;2023-07-29T06:19:35;100409.05;;;19.11;100.00
47811;BME280;33575;52.600;7.318;2023-07-29T06:22:06;100413.50;;;19.13;100.00
47811;BME280;33575;52.600;7.318;2023-07-29T06:24:36;100415.00;;;19.21;100.00
47811;BME280;33575;52.600;7.318;2023-07-29T06:27:06;100414.34;;;19.24;100.00
47811;BME280;33575;52.600;7.318;2023-07-29T06:29:37;100418.35;;;19.26;100.00
47811;BME280;33575;52.600;7.318;2023-07-29T06:32:07;100420.93;;;19.09;100.00
47811;BME280;33575;52.600;7.318;2023-07-29T06:34:37;100422.70;;;19.13;100.00
47811;BME280;33575;52.600;7.318;2023-07-29T06:37:08;100419.02;;;19.05;100.00
47811;BME280;33575;52.600;7.318;2023-07-29T06:39:38;100420.94;;;19.04;100.00
47811;BME280;33575;52.600;7.318;2023-07-29T06:42:09;100420.64;;;19.02;100.00
47811;BME280;33575;52.600;7.318;2023-07-29T06:44:40;100424.10;;;18.92;100.00
47811;BME280;33575;52.600;7.318;2023-07-29T06:47:09;100422.23;;;18.87;100.00
47811;BME280;33575;52.600;7.318;2023-07-29T06:49:40;100422.25;;;18.90;100.00
47811;BME280;33575;52.600;7.318;2023-07-29T06:52:10;100428.61;;;18.90;100.00
47811;BME280;33575;52.600;7.318;2023-07-29T06:54:40;100425.10;;;18.94;100.00
47811;BME280;33575;52.600;7.318;2023-07-29T06:57:10;100424.64;;;18.84;100.00
47811;BME280;33575;52.600;7.318;2023-07-29T06:59:41;100421.41;;;18.76;100.00
47811;BME280;33575;52.600;7.318;2023-07-29T07:02:11;100422.68;;;18.74;100.00
47811;BME280;33575;52.600;7.318;2023-07-29T07:04:41;100426.20;;;18.76;100.00
47811;BME280;33575;52.600;7.318;2023-07-29T07:07:11;100437.33;;;18.79;100.00
47811;BME280;33575;52.600;7.318;2023-07-29T07:09:42;100439.89;;;18.84;100.00
47811;BME280;33575;52.600;7.318;2023-07-29T07:12:12;100442.84;;;18.81;100.00
47811;BME280;33575;52.600;7.318;2023-07-29T07:14:42;100445.22;;;18.90;100.00
47811;BME280;33575;52.600;7.318;2023-07-29T07:17:14;100447.42;;;18.91;100.00
47811;BME280;33575;52.600;7.318;2023-07-29T07:19:43;100448.90;;;18.99;100.00
47811;BME280;33575;52.600;7.318;2023-07-29T07:22:13;100451.35;;;19.00;100.00
47811;BME280;33575;52.600;7.318;2023-07-29T07:24:44;100452.27;;;18.87;100.00
47811;BME280;33575;52.600;7.318;2023-07-29T07:27:14;100453.46;;;18.90;100.00
47811;BME280;33575;52.600;7.318;2023-07-29T07:29:44;100451.33;;;18.74;100.00
47811;BME280;33575;52.600;7.318;2023-07-29T07:32:15;100447.16;;;18.83;100.00
47811;BME280;33575;52.600;7.318;2023-07-29T07:34:45;100451.59;;;18.92;100.00
47811;BME280;33575;52.600;7.318;2023-07-29T07:37:15;100455.66;;;18.84;100.00
47811;BME280;33575;52.600;7.318;2023-07-29T07:39:46;100454.48;;;18.94;100.00
47811;BME280;33575;52.600;7.318;2023-07-29T07:42:16;100450.12;;;18.82;99.70
47811;BME280;33575;52.600;7.318;2023-07-29T07:44:47;100453.80;;;18.85;100.00
47811;BME280;33575;52.600;7.318;2023-07-29T07:47:17;100451.64;;;18.73;99.12
47811;BME280;33575;52.600;7.318;2023-07-29T07:49:48;100456.28;;;18.92;100.00
47811;BME280;33575;52.600;7.318;2023-07-29T07:52:18;100455.24;;;18.89;100.00
47811;BME280;33575;52.600;7.318;2023-07-29T07:54:51;100455.93;;;18.90;100.00
47811;BME280;33575;52.600;7.318;2023-07-29T07:57:20;100457.31;;;18.88;99.83
47811;BME280;33575;52.600;7.318;2023-07-29T07:59:49;100453.27;;;18.92;99.79
47811;BME280;33575;52.600;7.318;2023-07-29T08:02:19;100448.80;;;18.91;99.93
47811;BME280;33575;52.600;7.318;2023-07-29T08:04:50;100445.65;;;18.95;99.82
47811;BME280;33575;52.600;7.318;2023-07-29T08:07:21;100440.75;;;19.10;100.00
47811;BME280;33575;52.600;7.318;2023-07-29T08:09:51;100441.35;;;19.23;99.86
47811;BME280;33575;52.600;7.318;2023-07-29T08:12:21;100436.42;;;19.31;99.78
47811;BME280;33575;52.600;7.318;2023-07-29T08:14:52;100433.77;;;19.41;99.07
47811;BME280;33575;52.600;7.318;2023-07-29T08:17:22;100431.28;;;19.40;97.55
47811;BME280;33575;52.600;7.318;2023-07-29T08:19:52;100429.79;;;19.46;96.78
47811;BME280;33575;52.600;7.318;2023-07-29T08:22:23;100433.39;;;19.54;96.89
47811;BME280;33575;52.600;7.318;2023-07-29T08:24:53;100433.00;;;19.57;96.51
47811;BME280;33575;52.600;7.318;2023-07-29T08:27:24;100431.82;;;19.37;95.23
47811;BME280;33575;52.600;7.318;2023-07-29T08:29:55;100430.13;;;19.39;96.76
47811;BME280;33575;52.600;7.318;2023-07-29T08:32:25;100429.24;;;19.39;95.66
47811;BME280;33575;52.600;7.318;2023-07-29T08:34:56;100432.94;;;19.53;96.92
47811;BME280;33575;52.600;7.318;2023-07-29T08:37:26;100434.50;;;19.62;96.55
47811;BME280;33575;52.600;7.318;2023-07-29T08:39:56;100439.83;;;19.55;95.06
47811;BME280;33575;52.600;7.318;2023-07-29T08:42:29;100442.68;;;19.56;95.62
47811;BME280;33575;52.600;7.318;2023-07-29T08:45:07;100447.22;;;19.36;94.56
47811;BME280;33575;52.600;7.318;2023-07-29T08:47:27;100438.15;;;19.54;93.97
47811;BME280;33575;52.600;7.318;2023-07-29T08:49:58;100442.78;;;19.68;95.54
47811;BME280;33575;52.600;7.318;2023-07-29T08:52:29;100442.24;;;19.70;94.96
47811;BME280;33575;52.600;7.318;2023-07-29T08:54:59;100442.72;;;19.78;94.79
47811;BME280;33575;52.600;7.318;2023-07-29T08:57:28;100444.45;;;19.71;93.96
47811;BME280;33575;52.600;7.318;2023-07-29T08:59:58;100448.80;;;19.81;94.83
47811;BME280;33575;52.600;7.318;2023-07-29T09:02:29;100444.91;;;19.77;94.57
47811;BME280;33575;52.600;7.318;2023-07-29T09:04:59;100445.06;;;19.83;94.99
47811;BME280;33575;52.600;7.318;2023-07-29T09:07:29;100445.98;;;19.85;94.31
47811;BME280;33575;52.600;7.318;2023-07-29T09:09:59;100444.57;;;19.83;93.43
47811;BME280;33575;52.600;7.318;2023-07-29T09:12:29;100446.93;;;19.80;94.03
47811;BME280;33575;52.600;7.318;2023-07-29T09:14:59;100438.81;;;19.91;94.57
47811;BME280;33575;52.600;7.318;2023-07-29T09:17:31;100444.45;;;19.82;92.99
47811;BME280;33575;52.600;7.318;2023-07-29T09:20:00;100442.94;;;19.72;93.30
47811;BME280;33575;52.600;7.318;2023-07-29T09:22:30;100442.84;;;19.81;92.98
47811;BME280;33575;52.600;7.318;2023-07-29T09:25:01;100437.39;;;19.84;92.76
47811;BME280;33575;52.600;7.318;2023-07-29T09:27:31;100438.67;;;19.95;94.41
47811;BME280;33575;52.600;7.318;2023-07-29T09:30:01;100440.95;;;20.00;94.17
47811;BME280;33575;52.600;7.318;2023-07-29T09:32:31;100438.70;;;20.07;93.10
47811;BME280;33575;52.600;7.318;2023-07-29T09:35:01;100436.41;;;20.12;93.58
47811;BME280;33575;52.600;7.318;2023-07-29T09:37:32;100434.81;;;20.12;93.29
47811;BME280;33575;52.600;7.318;2023-07-29T09:40:02;100430.41;;;20.14;93.74
47811;BME280;33575;52.600;7.318;2023-07-29T09:42:32;100429.51;;;20.20;94.25
47811;BME280;33575;52.600;7.318;2023-07-29T09:45:03;100434.67;;;20.19;93.21
47811;BME280;33575;52.600;7.318;2023-07-29T09:47:32;100431.66;;;20.18;92.59
47811;BME280;33575;52.600;7.318;2023-07-29T09:50:04;100426.67;;;20.30;93.95
47811;BME280;33575;52.600;7.318;2023-07-29T09:52:33;100428.11;;;20.47;93.44
47811;BME280;33575;52.600;7.318;2023-07-29T09:55:05;100425.22;;;20.58;90.79
47811;BME280;33575;52.600;7.318;2023-07-29T09:57:34;100424.79;;;20.66;89.62
47811;BME280;33575;52.600;7.318;2023-07-29T10:00:06;100421.80;;;20.82;91.45
47811;BME280;33575;52.600;7.318;2023-07-29T10:02:35;100422.41;;;20.83;89.34
47811;BME280;33575;52.600;7.318;2023-07-29T10:05:07;100420.90;;;20.82;86.49
47811;BME280;33575;52.600;7.318;2023-07-29T10:07:37;100434.39;;;21.01;90.47
47811;BME280;33575;52.600;7.318;2023-07-29T10:10:07;100435.71;;;21.00;88.23
47811;BME280;33575;52.600;7.318;2023-07-29T10:12:37;100436.53;;;21.01;86.93
47811;BME280;33575;52.600;7.318;2023-07-29T10:15:07;100434.14;;;20.93;86.99
47811;BME280;33575;52.600;7.318;2023-07-29T10:17:39;100432.38;;;21.07;88.64
47811;BME280;33575;52.600;7.318;2023-07-29T10:20:09;100435.19;;;20.94;87.35
47811;BME280;33575;52.600;7.318;2023-07-29T10:22:39;100437.32;;;20.98;88.46
47811;BME280;33575;52.600;7.318;2023-07-29T10:25:14;100434.61;;;21.14;89.38
47811;BME280;33575;52.600;7.318;2023-07-29T10:27:43;100432.00;;;21.19;90.07
47811;BME280;33575;52.600;7.318;2023-07-29T10:30:11;100432.43;;;21.02;88.15
47811;BME280;33575;52.600;7.318;2023-07-29T10:32:42;100432.12;;;20.97;87.86
47811;BME280;33575;52.600;7.318;2023-07-29T10:35:10;100433.07;;;20.99;87.30
47811;BME280;33575;52.600;7.318;2023-07-29T10:37:40;100431.40;;;21.11;87.85
47811;BME280;33575;52.600;7.318;2023-07-29T10:40:11;100433.33;;;21.06;87.58
47811;BME280;33575;52.600;7.318;2023-07-29T10:45:17;100431.58;;;21.14;86.71
47811;BME280;33575;52.600;7.318;2023-07-29T10:47:42;100438.02;;;21.08;87.02
47811;BME280;33575;52.600;7.318;2023-07-29T10:50:18;100441.01;;;21.03;87.22
47811;BME280;33575;52.600;7.318;2023-07-29T10:52:43;100439.66;;;21.09;87.66
47811;BME280;33575;52.600;7.318;2023-07-29T10:57:45;100432.79;;;20.96;89.04
47811;BME280;33575;52.600;7.318;2023-07-29T11:00:16;100435.96;;;20.94;89.31
47811;BME280;33575;52.600;7.318;2023-07-29T11:02:56;100435.59;;;20.97;87.96
47811;BME280;33575;52.600;7.318;2023-07-29T11:05:16;100430.72;;;21.02;88.10
47811;BME280;33575;52.600;7.318;2023-07-29T11:07:47;100435.23;;;21.07;89.08
47811;BME280;33575;52.600;7.318;2023-07-29T11:10:16;100430.70;;;21.00;87.16
47811;BME280;33575;52.600;7.318;2023-07-29T11:12:47;100425.35;;;21.01;88.90
47811;BME280;33575;52.600;7.318;2023-07-29T11:15:21;100424.88;;;21.02;88.19
47811;BME280;33575;52.600;7.318;2023-07-29T11:17:49;100424.35;;;21.04;89.22
47811;BME280;33575;52.600;7.318;2023-07-29T11:20:19;100427.55;;;21.04;88.74
47811;BME280;33575;52.600;7.318;2023-07-29T11:22:49;100420.70;;;21.10;87.95
47811;BME280;33575;52.600;7.318;2023-07-29T11:25:19;100422.24;;;21.21;87.64
47811;BME280;33575;52.600;7.318;2023-07-29T11:27:51;100422.74;;;21.33;89.01
47811;BME280;33575;52.600;7.318;2023-07-29T11:30:19;100425.90;;;21.33;90.22
47811;BME280;33575;52.600;7.318;2023-07-29T11:32:50;100425.49;;;21.39;87.91
47811;BME280;33575;52.600;7.318;2023-07-29T11:35:19;100419.33;;;21.11;86.19
47811;BME280;33575;52.600;7.318;2023-07-29T11:37:52;100431.92;;;21.10;86.18
47811;BME280;33575;52.600;7.318;2023-07-29T11:40:21;100434.87;;;21.06;85.62
47811;BME280;33575;52.600;7.318;2023-07-29T11:42:51;100436.80;;;20.93;85.58
47811;BME280;33575;52.600;7.318;2023-07-29T11:45:22;100442.12;;;20.79;85.27
47811;BME280;33575;52.600;7.318;2023-07-29T11:47:51;100438.64;;;20.87;86.95
47811;BME280;33575;52.600;7.318;2023-07-29T11:50:21;100441.11;;;21.04;87.10
47811;BME280;33575;52.600;7.318;2023-07-29T11:52:51;100439.80;;;21.13;87.65
47811;BME280;33575;52.600;7.318;2023-07-29T11:55:21;100436.58;;;21.18;86.17
47811;BME280;33575;52.600;7.318;2023-07-29T11:57:52;100439.69;;;21.13;87.35
47811;BME280;33575;52.600;7.318;2023-07-29T12:00:23;100431.54;;;21.30;87.06
47811;BME280;33575;52.600;7.318;2023-07-29T12:02:53;100430.46;;;21.28;85.64
47811;BME280;33575;52.600;7.318;2023-07-29T12:05:23;100439.32;;;21.39;86.26
47811;BME280;33575;52.600;7.318;2023-07-29T12:07:53;100434.31;;;21.45;86.28
47811;BME280;33575;52.600;7.318;2023-07-29T12:10:25;100430.34;;;21.41;87.86
47811;BME280;33575;52.600;7.318;2023-07-29T12:12:53;100431.46;;;21.37;86.62
47811;BME280;33575;52.600;7.318;2023-07-29T12:15:24;100434.04;;;21.50;86.69
47811;BME280;33575;52.600;7.318;2023-07-29T12:17:55;100430.02;;;21.40;86.24
47811;BME280;33575;52.600;7.318;2023-07-29T12:20:25;100436.24;;;21.35;86.42
47811;BME280;33575;52.600;7.318;2023-07-29T12:22:56;100435.38;;;21.08;84.61
47811;BME280;33575;52.600;7.318;2023-07-29T12:25:26;100437.03;;;21.10;85.20
47811;BME280;33575;52.600;7.318;2023-07-29T12:27:55;100432.36;;;21.11;86.82
47811;BME280;33575;52.600;7.318;2023-07-29T12:30:26;100432.42;;;21.24;87.70
47811;BME280;33575;52.600;7.318;2023-07-29T12:32:56;100425.00;;;21.33;88.85
47811;BME280;33575;52.600;7.318;2023-07-29T12:38:00;100437.16;;;21.46;86.42
47811;BME280;33575;52.600;7.318;2023-07-29T12:40:27;100433.79;;;21.55;84.97
47811;BME280;33575;52.600;7.318;2023-07-29T12:42:57;100434.81;;;21.62;87.67
47811;BME280;33575;52.600;7.318;2023-07-29T12:45:27;100432.59;;;21.83;86.03
47811;BME280;33575;52.600;7.318;2023-07-29T12:47:57;100429.90;;;21.65;84.31
47811;BME280;33575;52.600;7.318;2023-07-29T12:50:27;100431.36;;;21.65;85.66
47811;BME280;33575;52.600;7.318;2023-07-29T12:52:58;100430.86;;;21.77;84.68
47811;BME280;33575;52.600;7.318;2023-07-29T12:55:28;100437.27;;;21.60;82.78
47811;BME280;33575;52.600;7.318;2023-07-29T12:57:58;100442.17;;;21.64;83.48
47811;BME280;33575;52.600;7.318;2023-07-29T13:00:28;100443.66;;;21.62;83.94
47811;BME280;33575;52.600;7.318;2023-07-29T13:02:58;100447.19;;;21.62;85.01
47811;BME280;33575;52.600;7.318;2023-07-29T13:05:28;100447.05;;;21.51;85.39
47811;BME280;33575;52.600;7.318;2023-07-29T13:07:59;100445.67;;;21.59;86.05
47811;BME280;33575;52.600;7.318;2023-07-29T13:10:29;100444.75;;;21.74;86.96